Time,TemperatureF,DewpointF,PressureIn,WindDirection,WindDirectionDegrees,WindSpeedMPH,WindSpeedGustMPH,Humidity,HourlyPrecipIn,Conditions,Clouds,dailyrainin,SolarRadiationWatts/m^2,SoftwareType,DateUTC
2013-11-01 00:00:00,45.0,45.0,-100.00,SW,215,11.0,18.0,100,0.00,,,-99.99,0.000000,,2013-11-01 07:00:00,
2013-11-01 00:22:00,45.0,45.0,-100.00,SW,215,11.0,18.0,100,0.00,,,-99.99,0.000000,,2013-11-01 07:22:00,
2013-11-01 00:32:00,45.0,45.0,-100.00,SW,215,11.0,18.0,100,0.00,,,-99.99,0.000000,,2013-11-01 07:32:00,
2013-11-01 00:42:00,45.0,45.0,-100.00,SW,215,11.0,18.0,100,0.00,,,-99.99,0.000000,,2013-11-01 07:42:00,
2013-11-01 00:52:00,45.0,45.0,-100.00,SW,215,11.0,18.0,100,0.00,,,-99.99,0.000000,,2013-11-01 07:52:00,
2013-11-01 01:00:00,45.0,45.0,-100.00,SSW,211,11.0,16.0,100,0.00,,,-99.99,0.000000,,2013-11-01 08:00:00,
2013-11-01 01:22:00,45.0,45.0,-100.00,SSW,211,11.0,16.0,100,0.00,,,-99.99,0.000000,,2013-11-01 08:22:00,
2013-11-01 01:32:00,45.0,45.0,-100.00,SSW,211,11.0,16.0,100,0.00,,,-99.99,0.000000,,2013-11-01 08:32:00,
2013-11-01 01:42:00,45.0,45.0,-100.00,SSW,211,11.0,16.0,100,0.00,,,-99.99,0.000000,,2013-11-01 08:42:00,
2013-11-01 01:52:00,45.0,45.0,-100.00,SSW,211,11.0,16.0,100,0.00,,,-99.99,0.000000,,2013-11-01 08:52:00,
2013-11-01 02:00:00,45.0,45.0,-100.00,SSW,213,11.0,17.0,100,0.00,,,-99.99,0.000000,,2013-11-01 09:00:00,
2013-11-01 02:22:00,45.0,45.0,-100.00,SSW,213,11.0,17.0,100,0.00,,,-99.99,0.000000,,2013-11-01 09:22:00,
2013-11-01 02:33:00,45.0,45.0,-100.00,SSW,213,11.0,17.0,100,0.00,,,-99.99,0.000000,,2013-11-01 09:33:00,
2013-11-01 02:43:00,45.0,45.0,-100.00,SSW,213,11.0,17.0,100,0.00,,,-99.99,0.000000,,2013-11-01 09:43:00,
2013-11-01 02:53:00,45.0,45.0,-100.00,SSW,213,11.0,17.0,100,0.00,,,-99.99,0.000000,,2013-11-01 09:53:00,
2013-11-01 03:00:00,43.0,43.0,-100.00,SW,215,10.0,16.0,100,0.00,,,-99.99,0.000000,,2013-11-01 10:00:00,
2013-11-01 03:23:00,43.0,43.0,-100.00,SW,215,10.0,16.0,100,0.00,,,-99.99,0.000000,,2013-11-01 10:23:00,
2013-11-01 03:33:00,43.0,43.0,-100.00,SW,215,10.0,16.0,100,0.00,,,-99.99,0.000000,,2013-11-01 10:33:00,
2013-11-01 03:42:00,43.0,43.0,-100.00,SW,215,10.0,16.0,100,0.00,,,-99.99,0.000000,,2013-11-01 10:42:00,
2013-11-01 03:53:00,43.0,43.0,-100.00,SW,215,10.0,16.0,100,0.00,,,-99.99,0.000000,,2013-11-01 10:53:00,
2013-11-01 04:00:00,43.0,43.0,-100.00,SSW,211,10.0,17.0,100,0.00,,,-99.99,0.000000,,2013-11-01 11:00:00,
2013-11-01 04:42:00,43.0,43.0,-100.00,SSW,211,10.0,17.0,100,0.00,,,-99.99,0.000000,,2013-11-01 11:42:00,
2013-11-01 04:52:00,43.0,43.0,-100.00,SSW,211,10.0,17.0,100,0.00,,,-99.99,0.000000,,2013-11-01 11:52:00,
2013-11-01 05:00:00,44.0,44.0,-100.00,SSW,210,12.0,18.0,100,0.00,,,-99.99,0.000000,,2013-11-01 12:00:00,
2013-11-01 05:42:00,44.0,44.0,-100.00,SSW,210,12.0,18.0,100,0.00,,,-99.99,0.000000,,2013-11-01 12:42:00,
2013-11-01 05:52:00,44.0,44.0,-100.00,SSW,210,12.0,18.0,100,0.00,,,-99.99,0.000000,,2013-11-01 12:52:00,
2013-11-01 06:00:00,44.0,44.0,-100.00,SSW,206,12.0,20.0,100,0.00,,,-99.99,0.000000,,2013-11-01 13:00:00,
2013-11-01 06:42:00,44.0,44.0,-100.00,SSW,206,12.0,20.0,100,0.00,,,-99.99,0.000000,,2013-11-01 13:42:00,
2013-11-01 06:52:00,44.0,44.0,-100.00,SSW,206,12.0,20.0,100,0.00,,,-99.99,0.000000,,2013-11-01 13:52:00,
2013-11-01 07:00:00,44.0,44.0,-100.00,SSW,210,9.0,21.0,100,0.00,,,-99.99,0.000000,,2013-11-01 14:00:00,
2013-11-01 07:42:00,44.0,44.0,-100.00,SSW,210,9.0,21.0,100,0.00,,,-99.99,0.000000,,2013-11-01 14:42:00,
2013-11-01 07:52:00,44.0,44.0,-100.00,SSW,210,9.0,21.0,100,0.00,,,-99.99,0.000000,,2013-11-01 14:52:00,
2013-11-01 08:00:00,44.0,44.0,-100.00,SW,222,4.0,11.0,100,0.00,,,-99.99,0.000000,,2013-11-01 15:00:00,
2013-11-01 08:22:00,44.0,44.0,-100.00,SW,222,4.0,11.0,100,0.00,,,-99.99,0.000000,,2013-11-01 15:22:00,
2013-11-01 08:33:00,44.0,44.0,-100.00,SW,222,4.0,11.0,100,0.00,,,-99.99,0.000000,,2013-11-01 15:33:00,
2013-11-01 08:44:00,44.0,44.0,-100.00,SW,222,4.0,11.0,100,0.00,,,-99.99,0.000000,,2013-11-01 15:44:00,
2013-11-01 08:54:00,44.0,44.0,-100.00,SW,222,4.0,11.0,100,0.00,,,-99.99,0.000000,,2013-11-01 15:54:00,
2013-11-01 09:00:00,44.0,44.0,-100.00,SW,221,6.0,8.0,100,0.00,,,0.02,10.000000,,2013-11-01 16:00:00,
2013-11-01 09:43:00,44.0,44.0,-100.00,SW,221,6.0,8.0,100,0.00,,,0.02,10.000000,,2013-11-01 16:43:00,
2013-11-01 09:53:00,44.0,44.0,-100.00,SW,221,6.0,8.0,100,0.00,,,0.02,10.000000,,2013-11-01 16:53:00,
2013-11-01 10:00:00,45.0,45.0,-100.00,SSW,211,8.0,13.0,100,0.00,,,-99.99,57.000000,,2013-11-01 17:00:00,
2013-11-01 10:43:00,45.0,45.0,-100.00,SSW,211,8.0,13.0,100,0.00,,,-99.99,57.000000,,2013-11-01 17:43:00,
2013-11-01 10:52:00,45.0,45.0,-100.00,SSW,211,8.0,13.0,100,0.00,,,-99.99,57.000000,,2013-11-01 17:52:00,
2013-11-01 11:00:00,44.0,44.0,-100.00,SW,214,8.0,14.0,100,0.00,,,0.01,96.000000,,2013-11-01 18:00:00,
2013-11-01 11:42:00,44.0,44.0,-100.00,SW,214,8.0,14.0,100,0.00,,,0.01,96.000000,,2013-11-01 18:42:00,
2013-11-01 11:52:00,44.0,44.0,-100.00,SW,214,8.0,14.0,100,0.00,,,0.01,96.000000,,2013-11-01 18:52:00,
2013-11-01 12:00:00,44.0,44.0,-100.00,SSW,211,8.0,15.0,100,0.00,,,0.01,92.000000,,2013-11-01 19:00:00,
2013-11-01 12:42:00,44.0,44.0,-100.00,SSW,211,8.0,15.0,100,0.00,,,0.01,92.000000,,2013-11-01 19:42:00,
2013-11-01 12:52:00,44.0,44.0,-100.00,SSW,211,8.0,15.0,100,0.00,,,0.01,92.000000,,2013-11-01 19:52:00,
2013-11-01 13:00:00,47.0,47.0,-100.00,SSW,208,5.0,14.0,100,0.00,,,0.01,126.000000,,2013-11-01 20:00:00,
2013-11-01 13:42:00,47.0,47.0,-100.00,SSW,208,5.0,14.0,100,0.00,,,0.01,126.000000,,2013-11-01 20:42:00,
2013-11-01 13:52:00,47.0,47.0,-100.00,SSW,208,5.0,14.0,100,0.00,,,0.01,126.000000,,2013-11-01 20:52:00,
2013-11-01 14:00:00,46.0,46.0,-100.00,SSW,212,6.0,10.0,100,0.00,,,-99.99,147.000000,,2013-11-01 21:00:00,
2013-11-01 14:22:00,46.0,46.0,-100.00,SSW,212,6.0,10.0,100,0.00,,,-99.99,147.000000,,2013-11-01 21:22:00,
2013-11-01 14:34:00,46.0,46.0,-100.00,SSW,212,6.0,10.0,100,0.00,,,-99.99,147.000000,,2013-11-01 21:34:00,
2013-11-01 14:43:00,46.0,46.0,-100.00,SSW,212,6.0,10.0,100,0.00,,,-99.99,147.000000,,2013-11-01 21:43:00,
2013-11-01 14:55:00,46.0,46.0,-100.00,SSW,212,6.0,10.0,100,0.00,,,-99.99,147.000000,,2013-11-01 21:55:00,
2013-11-01 15:00:00,46.0,46.0,-100.00,SSW,198,5.0,10.0,100,0.00,,,0.01,147.000000,,2013-11-01 22:00:00,
2013-11-01 15:42:00,46.0,46.0,-100.00,SSW,198,5.0,10.0,100,0.00,,,0.01,147.000000,,2013-11-01 22:42:00,
2013-11-01 15:53:00,46.0,46.0,-100.00,SSW,198,5.0,10.0,100,0.00,,,0.01,147.000000,,2013-11-01 22:53:00,
2013-11-01 16:00:00,46.0,46.0,-100.00,SSW,205,3.0,10.0,100,0.00,,,0.00,101.000000,,2013-11-01 23:00:00,
2013-11-01 16:42:00,46.0,46.0,-100.00,SSW,205,3.0,10.0,100,0.00,,,0.00,101.000000,,2013-11-01 23:42:00,
2013-11-01 16:53:00,46.0,46.0,-100.00,SSW,205,3.0,10.0,100,0.00,,,0.00,101.000000,,2013-11-01 23:53:00,
2013-11-01 17:00:00,44.0,44.0,-100.00,ESE,109,0.0,10.0,100,0.00,,,0.00,66.000000,,2013-11-02 00:00:00,
2013-11-01 17:22:00,44.0,44.0,-100.00,ESE,109,0.0,10.0,100,0.00,,,0.00,66.000000,,2013-11-02 00:22:00,
2013-11-01 17:32:00,44.0,44.0,-100.00,ESE,109,0.0,10.0,100,0.00,,,0.00,66.000000,,2013-11-02 00:32:00,
2013-11-01 17:42:00,44.0,44.0,-100.00,ESE,109,0.0,10.0,100,0.00,,,0.00,66.000000,,2013-11-02 00:42:00,
2013-11-01 17:52:00,44.0,44.0,-100.00,ESE,109,0.0,10.0,100,0.00,,,0.00,66.000000,,2013-11-02 00:52:00,
2013-11-01 18:00:00,43.0,43.0,-100.00,East,82,3.0,11.0,100,0.00,,,0.00,17.000000,,2013-11-02 01:00:00,
2013-11-01 18:42:00,43.0,43.0,-100.00,East,82,3.0,11.0,100,0.00,,,0.00,17.000000,,2013-11-02 01:42:00,
2013-11-01 18:52:00,43.0,43.0,-100.00,East,82,3.0,11.0,100,0.00,,,0.00,17.000000,,2013-11-02 01:52:00,
2013-11-01 19:00:00,44.0,44.0,-100.00,SSW,202,8.0,18.0,100,0.02,,,0.02,0.000000,,2013-11-02 02:00:00,
2013-11-01 19:42:00,44.0,44.0,-100.00,SSW,202,8.0,18.0,100,0.02,,,0.02,0.000000,,2013-11-02 02:42:00,
2013-11-01 19:53:00,44.0,44.0,-100.00,SSW,202,8.0,18.0,100,0.02,,,0.02,0.000000,,2013-11-02 02:53:00,
2013-11-01 20:00:00,43.0,43.0,-100.00,SSW,203,9.0,22.0,100,0.01,,,0.03,0.000000,,2013-11-02 03:00:00,
2013-11-01 20:44:00,43.0,43.0,-100.00,SSW,203,9.0,22.0,100,0.01,,,0.03,0.000000,,2013-11-02 03:44:00,
2013-11-01 20:53:00,43.0,43.0,-100.00,SSW,203,9.0,22.0,100,0.01,,,0.03,0.000000,,2013-11-02 03:53:00,
2013-11-01 21:00:00,44.0,44.0,-100.00,SSW,199,15.0,29.0,100,0.07,,,0.10,0.000000,,2013-11-02 04:00:00,
2013-11-01 21:44:00,44.0,44.0,-100.00,SSW,199,15.0,29.0,100,0.07,,,0.10,0.000000,,2013-11-02 04:44:00,
2013-11-01 21:54:00,44.0,44.0,-100.00,SSW,199,15.0,29.0,100,0.07,,,0.10,0.000000,,2013-11-02 04:54:00,
2013-11-01 22:00:00,44.0,44.0,-100.00,SSW,197,14.0,32.0,100,0.02,,,0.12,0.000000,,2013-11-02 05:00:00,
2013-11-01 22:42:00,44.0,44.0,-100.00,SSW,197,14.0,32.0,100,0.02,,,0.12,0.000000,,2013-11-02 05:42:00,
2013-11-01 22:52:00,44.0,44.0,-100.00,SSW,197,14.0,32.0,100,0.02,,,0.12,0.000000,,2013-11-02 05:52:00,
2013-11-01 23:00:00,43.0,43.0,-100.00,SSW,201,12.0,28.0,100,0.01,,,0.13,0.000000,,2013-11-02 06:00:00,
2013-11-01 23:22:00,43.0,43.0,-100.00,SSW,201,12.0,28.0,100,0.01,,,0.13,0.000000,,2013-11-02 06:22:00,
2013-11-01 23:32:00,43.0,43.0,-100.00,SSW,201,12.0,28.0,100,0.01,,,0.13,0.000000,,2013-11-02 06:32:00,
2013-11-01 23:43:00,43.0,43.0,-100.00,SSW,201,12.0,28.0,100,0.01,,,0.13,0.000000,,2013-11-02 06:43:00,
2013-11-01 23:52:00,43.0,43.0,-100.00,SSW,201,12.0,28.0,100,0.01,,,0.13,0.000000,,2013-11-02 06:52:00,